createdAt,value
2019-01-31T00:00:41.991Z,98055.23
2019-01-31T00:03:54.855Z,98051.59
2019-01-31T00:07:04.510Z,98052.13
2019-01-31T00:10:23.371Z,98054.75
2019-01-31T00:13:22.386Z,98053.67
2019-01-31T00:16:43.534Z,98053.73
2019-01-31T00:19:42.587Z,98054.93
2019-01-31T00:22:57.238Z,98058.10
2019-01-31T00:26:25.896Z,98053.49
2019-01-31T00:29:35.619Z,98058.67
2019-01-31T00:32:45.373Z,98061.41
2019-01-31T00:36:01.418Z,98062.31
2019-01-31T00:39:21.843Z,98070.19
2019-01-31T00:42:33.209Z,98078.54
2019-01-31T00:45:38.354Z,98078.00
2019-01-31T00:48:59.827Z,98080.51
2019-01-31T00:52:19.525Z,98086.55
2019-01-31T00:55:16.541Z,98084.70
2019-01-31T00:58:11.756Z,98084.14
2019-01-31T01:01:22.937Z,98083.88
2019-01-31T01:04:58.880Z,98087.00
2019-01-31T01:08:15.884Z,98091.94
2019-01-31T01:12:04.465Z,98091.72
2019-01-31T01:15:31.124Z,98092.27
2019-01-31T01:18:40.676Z,98097.12
2019-01-31T01:21:55.579Z,98097.55
2019-01-31T01:25:36.533Z,98098.27
2019-01-31T01:28:48.674Z,98098.08
2019-01-31T01:32:01.044Z,98099.59
2019-01-31T01:35:01.334Z,98094.36
2019-01-31T01:38:27.237Z,98102.66
2019-01-31T01:41:37.356Z,98091.36
2019-01-31T01:45:04.294Z,98090.84
2019-01-31T01:47:58.483Z,98091.37
2019-01-31T01:51:28.096Z,98096.73
2019-01-31T01:54:27.552Z,98096.90
2019-01-31T01:58:06.283Z,98093.66
2019-01-31T02:01:46.438Z,98086.80
2019-01-31T02:05:08.468Z,98085.55
2019-01-31T02:08:40.957Z,98084.46
2019-01-31T02:11:39.127Z,98076.83
2019-01-31T02:14:54.308Z,98078.30
2019-01-31T02:18:12.845Z,98078.81
2019-01-31T02:21:37.220Z,98087.86
2019-01-31T02:24:40.288Z,98084.02
2019-01-31T02:28:06.231Z,98083.89
2019-01-31T02:31:43.015Z,98080.75
2019-01-31T02:35:18.931Z,98073.36
2019-01-31T02:38:56.416Z,98068.00
2019-01-31T02:42:12.683Z,98059.48
2019-01-31T02:45:23.844Z,98060.86
2019-01-31T02:48:36.812Z,98055.45
2019-01-31T02:52:06.025Z,98067.27
2019-01-31T02:54:56.424Z,98064.38
2019-01-31T02:58:23.010Z,98061.68
2019-01-31T03:01:36.735Z,98059.62
2019-01-31T03:04:40.016Z,98059.23
2019-01-31T03:07:57.926Z,98057.53
2019-01-31T03:11:06.236Z,98057.83
2019-01-31T03:14:09.456Z,98057.95
2019-01-31T03:17:34.953Z,98062.11
2019-01-31T03:20:57.838Z,98059.30
2019-01-31T03:24:28.698Z,98062.34
2019-01-31T03:28:10.090Z,98060.45
2019-01-31T03:31:32.690Z,98067.23
2019-01-31T03:34:38.773Z,98060.78
2019-01-31T03:37:35.556Z,98063.95
2019-01-31T03:40:44.481Z,98065.55
2019-01-31T03:43:45.879Z,98064.83
2019-01-31T03:46:48.393Z,98059.07
2019-01-31T03:49:57.131Z,98060.41
2019-01-31T03:53:23.979Z,98055.70
2019-01-31T03:56:39.534Z,98055.40
2019-01-31T03:59:27.696Z,98056.55
2019-01-31T04:02:51.487Z,98057.13
2019-01-31T04:05:52.683Z,98055.20
2019-01-31T04:08:25.467Z,98060.80
2019-01-31T04:10:59.807Z,98059.33
2019-01-31T04:13:34.103Z,98064.64
2019-01-31T04:16:08.488Z,98061.75
2019-01-31T04:18:41.244Z,98069.89
2019-01-31T04:21:14.863Z,98070.39
2019-01-31T04:23:47.834Z,98067.42
2019-01-31T04:26:20.623Z,98064.14
2019-01-31T04:28:55.433Z,98065.36
2019-01-31T04:31:28.195Z,98062.92
2019-01-31T04:34:00.914Z,98062.66
2019-01-31T04:36:36.159Z,98061.97
2019-01-31T04:39:10.046Z,98068.55
2019-01-31T04:41:42.728Z,98065.13
2019-01-31T04:44:15.755Z,98064.16
2019-01-31T04:46:48.674Z,98063.61
2019-01-31T04:49:21.308Z,98064.30
2019-01-31T04:51:54.651Z,98062.87
2019-01-31T04:54:27.468Z,98059.61
2019-01-31T04:57:00.285Z,98061.36
2019-01-31T04:59:33.406Z,98066.00
2019-01-31T05:02:06.317Z,98065.94
2019-01-31T05:04:38.976Z,98060.67
2019-01-31T05:07:12.404Z,98054.50
2019-01-31T05:09:46.421Z,98055.47
2019-01-31T05:12:19.424Z,98060.44
2019-01-31T05:14:52.444Z,98062.94
2019-01-31T05:17:25.194Z,98062.17
2019-01-31T05:19:58.739Z,98061.24
2019-01-31T05:22:32.248Z,98064.48
2019-01-31T05:25:06.424Z,98061.73
2019-01-31T05:27:39.435Z,98064.41
2019-01-31T05:30:15.774Z,98062.91
2019-01-31T05:32:48.657Z,98062.78
2019-01-31T05:35:22.164Z,98059.81
2019-01-31T05:37:55.401Z,98062.47
2019-01-31T05:40:28.196Z,98060.21
2019-01-31T05:43:01.009Z,98064.91
2019-01-31T05:45:34.173Z,98060.35
2019-01-31T05:48:06.971Z,98060.43
2019-01-31T05:50:39.741Z,98062.16
2019-01-31T05:53:16.175Z,98063.34
2019-01-31T05:55:48.929Z,98066.91
2019-01-31T05:58:21.797Z,98069.08
2019-01-31T06:00:54.948Z,98068.39
2019-01-31T06:03:28.960Z,98069.25
2019-01-31T06:06:01.823Z,98069.73
2019-01-31T06:08:35.931Z,98075.11
2019-01-31T06:11:08.940Z,98075.26
2019-01-31T06:13:44.139Z,98073.21
2019-01-31T06:16:18.257Z,98079.89
2019-01-31T06:18:52.064Z,98075.12
2019-01-31T06:21:24.800Z,98082.45
2019-01-31T06:23:57.953Z,98077.90
2019-01-31T06:26:31.396Z,98079.77
2019-01-31T06:29:05.275Z,98079.35
2019-01-31T06:31:37.998Z,98076.41
2019-01-31T06:34:10.689Z,98072.20
2019-01-31T06:36:44.302Z,98071.23
2019-01-31T06:39:20.090Z,98070.88
2019-01-31T06:41:53.011Z,98071.84
2019-01-31T06:44:26.897Z,98075.85
2019-01-31T06:47:00.879Z,98075.48
2019-01-31T06:49:33.541Z,98075.28
2019-01-31T06:52:08.771Z,98081.55
2019-01-31T06:54:42.781Z,98080.64
2019-01-31T06:57:16.275Z,98085.06
2019-01-31T06:59:51.770Z,98086.16
2019-01-31T07:02:25.824Z,98087.13
2019-01-31T07:04:59.293Z,98090.40
2019-01-31T07:07:32.664Z,98094.87
2019-01-31T07:10:15.916Z,98097.73
2019-01-31T07:12:48.891Z,98098.77
2019-01-31T07:15:23.839Z,98106.09
2019-01-31T07:17:57.169Z,98106.63
2019-01-31T07:20:30.192Z,98109.02
2019-01-31T07:23:05.090Z,98115.97
2019-01-31T07:25:37.979Z,98117.83
2019-01-31T07:28:18.220Z,98117.60
2019-01-31T07:30:52.025Z,98122.91
2019-01-31T07:33:25.853Z,98119.19
2019-01-31T07:35:58.746Z,98121.98
2019-01-31T07:38:31.883Z,98123.45
2019-01-31T07:41:04.719Z,98123.91
2019-01-31T07:43:38.600Z,98127.80
2019-01-31T07:46:12.840Z,98123.97
2019-01-31T07:48:46.402Z,98124.50
2019-01-31T07:51:19.174Z,98120.00
2019-01-31T07:53:52.281Z,98122.51
2019-01-31T07:56:25.176Z,98124.49
2019-01-31T07:58:57.919Z,98121.47
2019-01-31T08:01:33.644Z,98116.89
2019-01-31T08:04:06.847Z,98122.18
2019-01-31T08:06:39.586Z,98125.36
2019-01-31T08:09:12.984Z,98124.59
2019-01-31T08:11:52.297Z,98131.30
2019-01-31T08:14:26.997Z,98133.08
2019-01-31T08:17:02.176Z,98126.75
2019-01-31T08:19:35.620Z,98125.56
2019-01-31T08:22:09.151Z,98123.58
2019-01-31T08:24:42.376Z,98126.53
2019-01-31T08:27:16.208Z,98121.52
2019-01-31T08:29:50.299Z,98117.39
2019-01-31T08:32:23.828Z,98116.16
2019-01-31T08:34:57.461Z,98108.03
2019-01-31T08:37:30.491Z,98112.70
2019-01-31T08:40:03.710Z,98107.59
2019-01-31T08:42:40.334Z,98104.08
2019-01-31T08:45:20.615Z,98106.28
2019-01-31T08:47:54.347Z,98101.95
2019-01-31T08:50:31.201Z,98105.05
2019-01-31T08:53:04.981Z,98105.66
2019-01-31T08:55:38.938Z,98103.86
2019-01-31T08:58:13.673Z,98104.03
2019-01-31T09:00:46.597Z,98110.77
2019-01-31T09:03:22.466Z,98107.02
2019-01-31T09:05:55.881Z,98102.63
2019-01-31T09:08:51.147Z,98102.66
2019-01-31T09:11:23.983Z,98093.88
2019-01-31T09:13:57.325Z,98099.80
2019-01-31T09:16:30.964Z,98099.95
2019-01-31T09:19:04.846Z,98097.23
2019-01-31T09:22:07.787Z,98101.05
2019-01-31T09:25:44.375Z,98099.71
2019-01-31T09:29:13.162Z,98101.45
2019-01-31T09:32:45.320Z,98096.22
2019-01-31T09:36:02.456Z,98104.14
2019-01-31T09:39:18.605Z,98097.96
2019-01-31T09:42:41.836Z,98098.87
2019-01-31T09:45:46.457Z,98099.84
2019-01-31T09:48:54.772Z,98104.31
2019-01-31T09:52:32.240Z,98101.25
2019-01-31T09:56:28.351Z,98101.96
2019-01-31T09:59:55.006Z,98103.73
2019-01-31T10:03:21.209Z,98099.92
2019-01-31T10:06:31.670Z,98101.41
2019-01-31T10:09:59.204Z,98095.95
2019-01-31T10:13:40.047Z,98095.77
2019-01-31T10:16:51.351Z,98093.20
2019-01-31T10:20:01.556Z,98093.51
2019-01-31T10:23:33.177Z,98090.37
2019-01-31T10:26:44.383Z,98091.39
2019-01-31T10:29:48.531Z,98091.95
2019-01-31T10:33:08.321Z,98089.62
2019-01-31T10:36:58.991Z,98087.58
2019-01-31T10:40:23.792Z,98087.70
2019-01-31T10:43:33.711Z,98081.25
2019-01-31T10:46:40.691Z,98078.36
2019-01-31T10:49:45.566Z,98071.90
2019-01-31T10:53:06.916Z,98070.58
2019-01-31T10:56:20.038Z,98062.33
2019-01-31T10:59:50.550Z,98058.28
2019-01-31T11:03:15.465Z,98050.37
2019-01-31T11:06:45.482Z,98047.22
2019-01-31T11:10:00.968Z,98038.14
2019-01-31T11:13:32.955Z,98038.00
2019-01-31T11:17:12.654Z,98041.09
2019-01-31T11:20:49.252Z,98036.86
2019-01-31T11:24:19.884Z,98033.71
2019-01-31T11:27:46.915Z,98034.72
2019-01-31T11:30:59.919Z,98028.80
2019-01-31T11:34:32.799Z,98034.34
2019-01-31T11:38:15.245Z,98029.93
2019-01-31T11:41:45.172Z,98025.25
2019-01-31T11:45:22.625Z,98021.66
2019-01-31T11:49:06.660Z,98019.83
2019-01-31T11:52:35.536Z,98017.84
2019-01-31T11:55:38.846Z,98014.11
2019-01-31T11:59:06.582Z,98008.32
2019-01-31T12:01:42.922Z,98013.56
2019-01-31T12:04:20.384Z,98007.70
2019-01-31T12:06:58.088Z,98010.61
2019-01-31T12:09:32.156Z,98016.36
2019-01-31T12:12:09.300Z,98011.95
2019-01-31T12:14:42.005Z,98009.22
2019-01-31T12:17:14.845Z,98003.74
2019-01-31T12:19:47.625Z,98005.39
2019-01-31T12:22:20.435Z,98006.25
2019-01-31T12:24:55.028Z,97998.00
2019-01-31T12:27:27.956Z,98002.38
2019-01-31T12:30:00.775Z,97998.77
2019-01-31T12:32:37.741Z,97999.48
2019-01-31T12:35:12.816Z,97993.75
2019-01-31T12:37:49.187Z,97996.45
2019-01-31T12:40:22.282Z,98002.14
2019-01-31T12:42:56.375Z,98000.84
2019-01-31T12:45:29.483Z,98002.03
2019-01-31T12:48:06.503Z,98007.32
2019-01-31T12:50:43.257Z,98001.47
2019-01-31T12:53:24.920Z,97998.93
2019-01-31T12:55:57.642Z,97994.70
2019-01-31T12:58:33.840Z,97997.40
2019-01-31T13:01:10.992Z,97996.84
2019-01-31T13:03:45.380Z,97994.41
2019-01-31T13:06:18.300Z,97989.02
2019-01-31T13:08:51.257Z,97987.13
2019-01-31T13:11:24.610Z,97983.34
2019-01-31T13:14:01.433Z,97991.56
2019-01-31T13:16:34.428Z,97990.03
2019-01-31T13:19:11.690Z,97988.09
2019-01-31T13:21:48.534Z,97990.50
2019-01-31T13:24:21.483Z,97997.11
2019-01-31T13:26:56.055Z,97992.67
2019-01-31T13:29:30.534Z,97990.54
2019-01-31T13:32:05.172Z,97996.51
2019-01-31T13:34:41.202Z,97990.81
2019-01-31T13:37:13.936Z,97987.71
2019-01-31T13:39:47.759Z,97987.34
2019-01-31T13:42:21.548Z,97987.02
2019-01-31T13:44:57.103Z,97979.15
2019-01-31T13:47:30.048Z,97975.49
2019-01-31T13:50:05.108Z,97978.23
2019-01-31T13:52:40.924Z,97981.36
2019-01-31T13:55:23.205Z,97987.60
2019-01-31T13:58:01.867Z,97987.45
2019-01-31T14:00:40.170Z,97989.81
2019-01-31T14:03:13.013Z,97989.97
2019-01-31T14:05:48.618Z,97985.91
2019-01-31T14:08:22.784Z,97991.52
2019-01-31T14:10:59.449Z,97990.19
2019-01-31T14:13:35.343Z,97989.37
2019-01-31T14:16:22.572Z,97996.25
2019-01-31T14:19:11.410Z,97991.92
2019-01-31T14:21:48.840Z,97983.76
2019-01-31T14:24:23.693Z,97977.27
2019-01-31T14:26:58.031Z,97985.12
2019-01-31T14:29:33.347Z,97982.16
2019-01-31T14:32:15.346Z,97987.86
2019-01-31T14:34:49.204Z,97989.94
2019-01-31T14:37:24.410Z,97986.48
2019-01-31T14:40:00.612Z,97985.09
2019-01-31T14:42:34.289Z,97981.52
2019-01-31T14:45:08.343Z,97972.27
2019-01-31T14:47:45.525Z,97974.63
2019-01-31T14:50:27.501Z,97968.50
2019-01-31T14:53:02.713Z,97968.54
2019-01-31T14:55:36.402Z,97974.73
2019-01-31T14:58:12.049Z,97971.88
2019-01-31T15:00:47.931Z,97974.37
2019-01-31T15:03:25.440Z,97975.70
2019-01-31T15:05:59.367Z,97980.23
2019-01-31T15:08:33.362Z,97985.20
2019-01-31T15:11:06.342Z,97979.69
2019-01-31T15:13:40.027Z,97974.22
2019-01-31T15:16:13.585Z,97972.09
2019-01-31T15:18:50.233Z,97970.12
2019-01-31T15:21:25.312Z,97970.66
2019-01-31T15:23:59.774Z,97972.81
2019-01-31T15:26:34.523Z,97967.63
2019-01-31T15:29:07.688Z,97974.92
2019-01-31T15:31:42.785Z,97975.40
2019-01-31T15:34:16.297Z,97979.64
2019-01-31T15:36:50.399Z,97971.86
2019-01-31T15:39:24.228Z,97975.66
2019-01-31T15:41:59.326Z,97977.54
2019-01-31T15:44:42.784Z,97971.58
2019-01-31T15:47:17.489Z,97967.95
2019-01-31T15:49:53.709Z,97965.48
2019-01-31T15:52:27.184Z,97962.38
2019-01-31T15:55:02.612Z,97955.58
2019-01-31T15:57:39.519Z,97952.91
2019-01-31T16:00:29.203Z,97956.05
2019-01-31T16:03:05.090Z,97944.27
2019-01-31T16:05:41.206Z,97941.33
2019-01-31T16:08:14.312Z,97940.95
2019-01-31T16:10:48.706Z,97941.57
2019-01-31T16:13:24.358Z,97931.47
2019-01-31T16:15:59.712Z,97933.38
2019-01-31T16:18:32.500Z,97932.31
2019-01-31T16:21:08.255Z,97935.72
2019-01-31T16:23:42.758Z,97923.36
2019-01-31T16:26:18.460Z,97923.11
2019-01-31T16:28:54.741Z,97923.81
2019-01-31T16:31:36.049Z,97924.63
2019-01-31T16:34:09.824Z,97919.12
2019-01-31T16:36:43.689Z,97923.07
2019-01-31T16:39:19.304Z,97925.23
2019-01-31T16:41:54.147Z,97922.84
2019-01-31T16:44:28.841Z,97915.66
2019-01-31T16:47:01.989Z,97909.39
2019-01-31T16:49:35.927Z,97907.25
2019-01-31T16:52:09.606Z,97902.78
2019-01-31T16:54:46.456Z,97901.66
2019-01-31T16:57:33.471Z,97898.29
2019-01-31T17:00:20.285Z,97902.44
2019-01-31T17:03:06.374Z,97901.98
2019-01-31T17:05:40.933Z,97908.36
2019-01-31T17:08:16.239Z,97903.81
2019-01-31T17:10:49.807Z,97903.70
2019-01-31T17:13:28.425Z,97899.91
2019-01-31T17:16:01.636Z,97902.30
2019-01-31T17:18:38.744Z,97898.55
2019-01-31T17:21:13.552Z,97893.48
2019-01-31T17:23:49.515Z,97897.63
2019-01-31T17:26:24.617Z,97899.27
2019-01-31T17:28:59.683Z,97902.11
2019-01-31T17:31:35.603Z,97901.47
2019-01-31T17:34:11.282Z,97896.56
2019-01-31T17:36:46.271Z,97891.17
2019-01-31T17:39:33.225Z,97884.55
2019-01-31T17:42:06.615Z,97881.05
2019-01-31T17:44:40.668Z,97884.36
2019-01-31T17:47:15.616Z,97885.09
2019-01-31T17:49:49.990Z,97880.59
2019-01-31T17:52:27.522Z,97878.12
2019-01-31T17:55:01.198Z,97876.09
2019-01-31T17:57:34.222Z,97868.67
2019-01-31T18:00:24.919Z,97864.53
2019-01-31T18:02:58.969Z,97861.68
2019-01-31T18:05:34.180Z,97856.48
2019-01-31T18:08:09.353Z,97859.30
2019-01-31T18:10:45.859Z,97862.29
2019-01-31T18:13:20.390Z,97856.63
2019-01-31T18:15:53.361Z,97852.23
2019-01-31T18:18:29.908Z,97852.64
2019-01-31T18:21:04.556Z,97855.47
2019-01-31T18:23:42.333Z,97849.50
2019-01-31T18:26:16.285Z,97847.73
2019-01-31T18:28:48.989Z,97846.07
2019-01-31T18:31:23.384Z,97840.60
2019-01-31T18:33:58.289Z,97839.09
2019-01-31T18:36:34.739Z,97844.98
2019-01-31T18:39:11.994Z,97842.84
2019-01-31T18:41:46.378Z,97831.94
2019-01-31T18:44:20.038Z,97825.52
2019-01-31T18:46:55.693Z,97826.20
2019-01-31T18:49:31.003Z,97831.52
2019-01-31T18:52:07.745Z,97832.73
2019-01-31T18:54:41.897Z,97823.38
2019-01-31T18:57:14.726Z,97821.38
2019-01-31T18:59:49.404Z,97816.50
2019-01-31T19:02:24.262Z,97813.69
2019-01-31T19:04:58.058Z,97814.95
2019-01-31T19:07:37.504Z,97814.81
2019-01-31T19:10:15.659Z,97817.95
2019-01-31T19:12:50.934Z,97816.53
2019-01-31T19:15:27.337Z,97813.52
2019-01-31T19:18:05.854Z,97810.88
2019-01-31T19:20:46.372Z,97809.83
2019-01-31T19:24:11.840Z,97806.02
2019-01-31T19:26:50.276Z,97804.27
2019-01-31T19:29:27.210Z,97788.47
2019-01-31T19:32:01.560Z,97777.52
2019-01-31T19:34:38.037Z,97773.05
2019-01-31T19:37:12.934Z,97771.84
2019-01-31T19:39:50.782Z,97782.00
2019-01-31T19:42:24.331Z,97787.52
2019-01-31T19:44:59.531Z,97780.89
2019-01-31T19:47:33.349Z,97780.33
2019-01-31T19:50:08.293Z,97787.61
2019-01-31T19:52:43.077Z,97777.16
2019-01-31T19:55:19.751Z,97781.17
2019-01-31T19:57:54.079Z,97771.10
2019-01-31T20:00:31.152Z,97766.88
2019-01-31T20:03:05.636Z,97762.58
2019-01-31T20:05:40.598Z,97745.50
2019-01-31T20:08:13.863Z,97744.91
2019-01-31T20:10:53.395Z,97741.36
2019-01-31T20:13:28.057Z,97729.05
2019-01-31T20:16:28.543Z,97719.59
2019-01-31T20:19:02.569Z,97714.77
2019-01-31T20:21:39.669Z,97710.11
2019-01-31T20:24:14.503Z,97708.48
2019-01-31T20:26:49.904Z,97705.23
2019-01-31T20:29:26.575Z,97700.13
2019-01-31T20:32:02.246Z,97700.40
2019-01-31T20:34:37.960Z,97692.34
2019-01-31T20:37:12.869Z,97690.89
2019-01-31T20:39:55.612Z,97688.48
2019-01-31T20:42:30.746Z,97682.41
2019-01-31T20:45:10.454Z,97682.23
2019-01-31T20:47:44.616Z,97689.17
2019-01-31T20:50:26.555Z,97687.61
2019-01-31T20:53:01.171Z,97674.99
2019-01-31T20:55:35.372Z,97668.94
2019-01-31T20:58:08.996Z,97666.13
2019-01-31T21:00:46.486Z,97658.88
2019-01-31T21:03:20.670Z,97658.25
2019-01-31T21:05:56.714Z,97655.85
2019-01-31T21:08:29.460Z,97654.97
2019-01-31T21:11:02.510Z,97649.50
2019-01-31T21:13:41.387Z,97652.11
2019-01-31T21:16:22.589Z,97650.42
2019-01-31T21:19:02.526Z,97655.05
2019-01-31T21:21:42.450Z,97652.95
2019-01-31T21:24:17.648Z,97641.72
2019-01-31T21:26:53.751Z,97632.45
2019-01-31T21:29:33.346Z,97620.42
2019-01-31T21:32:09.082Z,97613.86
2019-01-31T21:34:48.605Z,97619.08
2019-01-31T21:37:26.159Z,97615.02
2019-01-31T21:40:05.638Z,97614.84
2019-01-31T21:42:44.418Z,97615.59
2019-01-31T21:45:21.069Z,97616.10
2019-01-31T21:47:54.463Z,97614.14
2019-01-31T21:50:29.003Z,97617.73
2019-01-31T21:53:08.006Z,97608.98
2019-01-31T21:55:45.345Z,97603.56
2019-01-31T21:58:23.472Z,97595.58
2019-01-31T22:01:01.666Z,97593.27
2019-01-31T22:03:36.190Z,97588.97
2019-01-31T22:06:22.587Z,97581.11
2019-01-31T22:09:24.902Z,97574.80
2019-01-31T22:12:03.900Z,97576.54
2019-01-31T22:14:40.848Z,97565.48
2019-01-31T22:17:24.367Z,97568.08
2019-01-31T22:20:11.120Z,97565.25
2019-01-31T22:22:47.676Z,97566.38
2019-01-31T22:25:26.854Z,97563.23
2019-01-31T22:28:00.740Z,97561.86
2019-01-31T22:30:39.480Z,97563.10
2019-01-31T22:33:12.511Z,97561.11
2019-01-31T22:35:45.348Z,97557.94
2019-01-31T22:38:20.549Z,97557.82
2019-01-31T22:40:55.236Z,97554.00
2019-01-31T22:43:28.737Z,97550.08
2019-01-31T22:46:02.529Z,97551.88
2019-01-31T22:48:36.446Z,97547.63
2019-01-31T22:51:09.817Z,97539.73
2019-01-31T22:53:43.851Z,97536.23
2019-01-31T22:56:18.464Z,97518.88
2019-01-31T22:58:51.185Z,97522.20
2019-01-31T23:01:38.861Z,97507.98
2019-01-31T23:04:11.808Z,97501.37
2019-01-31T23:06:45.084Z,97502.61
2019-01-31T23:09:18.401Z,97496.06
2019-01-31T23:11:51.297Z,97497.90
2019-01-31T23:14:24.209Z,97496.31
2019-01-31T23:16:57.509Z,97494.97
2019-01-31T23:19:32.797Z,97491.55
2019-01-31T23:22:07.459Z,97478.06
2019-01-31T23:24:40.743Z,97478.75
2019-01-31T23:27:14.404Z,97469.56
2019-01-31T23:29:48.269Z,97463.94
2019-01-31T23:32:22.408Z,97460.93
2019-01-31T23:35:02.791Z,97446.31
2019-01-31T23:37:36.676Z,97444.86
2019-01-31T23:40:12.005Z,97434.25
2019-01-31T23:42:44.795Z,97426.58
2019-01-31T23:45:38.565Z,97420.25
2019-01-31T23:48:11.389Z,97415.48
2019-01-31T23:50:44.159Z,97410.94
2019-01-31T23:53:18.243Z,97407.44
2019-01-31T23:55:51.754Z,97397.08
2019-01-31T23:58:26.859Z,97389.59
